createdAt,value
2017-11-09T00:00:41.717Z,78.87
2017-11-09T00:03:09.960Z,87.10
2017-11-09T00:05:43.750Z,78.77
2017-11-09T00:08:12.763Z,84.87
2017-11-09T00:10:41.007Z,82.10
2017-11-09T00:13:10.032Z,83.30
2017-11-09T00:15:38.270Z,84.87
2017-11-09T00:18:07.293Z,82.00
2017-11-09T00:20:35.576Z,82.60
2017-11-09T00:23:04.579Z,86.87
2017-11-09T00:25:32.830Z,87.20
2017-11-09T00:28:01.099Z,76.30
2017-11-09T00:30:30.121Z,78.13
2017-11-09T00:32:58.393Z,81.73
2017-11-09T00:35:26.646Z,88.93
2017-11-09T00:37:55.687Z,85.50
2017-11-09T00:40:23.940Z,77.63
2017-11-09T00:42:52.186Z,83.00
2017-11-09T00:45:21.208Z,78.83
2017-11-09T00:47:49.462Z,75.33
2017-11-09T00:50:18.471Z,80.07
2017-11-09T00:52:46.711Z,79.77
2017-11-09T00:55:15.735Z,81.37
2017-11-09T00:57:43.978Z,88.93
2017-11-09T01:00:12.228Z,83.43
2017-11-09T01:02:40.471Z,71.57
2017-11-09T01:05:08.720Z,77.73
2017-11-09T01:07:37.731Z,76.23
2017-11-09T01:10:05.986Z,70.20
2017-11-09T01:12:34.996Z,75.83
2017-11-09T01:15:03.599Z,85.10
2017-11-09T01:17:31.855Z,89.20
2017-11-09T01:20:00.098Z,91.43
2017-11-09T01:22:29.119Z,84.30
2017-11-09T01:24:57.364Z,81.90
2017-11-09T01:27:25.619Z,80.83
2017-11-09T01:29:53.883Z,82.27
2017-11-09T01:32:22.118Z,85.13
2017-11-09T01:34:50.367Z,82.83
2017-11-09T01:37:18.619Z,80.87
2017-11-09T01:39:46.861Z,78.10
2017-11-09T01:42:15.110Z,82.23
2017-11-09T01:44:43.360Z,85.80
2017-11-09T01:47:11.616Z,77.97
2017-11-09T01:49:39.867Z,83.43
2017-11-09T01:52:08.131Z,93.90
2017-11-09T01:54:36.379Z,90.60
2017-11-09T01:57:05.384Z,83.90
2017-11-09T01:59:33.635Z,79.87
2017-11-09T02:02:01.870Z,76.60
2017-11-09T02:04:30.115Z,79.20
2017-11-09T02:06:58.358Z,83.23
2017-11-09T02:09:27.378Z,79.10
2017-11-09T02:11:55.627Z,84.47
2017-11-09T02:14:23.876Z,86.07
2017-11-09T02:16:52.892Z,83.43
2017-11-09T02:19:21.139Z,82.27
2017-11-09T02:21:49.386Z,83.57
2017-11-09T02:24:17.635Z,86.03
2017-11-09T02:26:46.644Z,80.83
2017-11-09T02:29:14.908Z,84.57
2017-11-09T02:31:43.923Z,83.43
2017-11-09T02:34:12.174Z,75.50
2017-11-09T02:36:41.182Z,78.57
2017-11-09T02:39:09.424Z,89.07
2017-11-09T02:41:37.691Z,79.97
2017-11-09T02:44:05.926Z,80.97
2017-11-09T02:46:34.182Z,83.00
2017-11-09T02:49:02.419Z,85.90
2017-11-09T02:51:30.674Z,80.80
2017-11-09T02:53:58.916Z,73.70
2017-11-09T02:56:27.167Z,88.70
2017-11-09T02:58:56.174Z,84.27
2017-11-09T03:01:24.429Z,85.17
2017-11-09T03:03:53.434Z,80.73
2017-11-09T03:06:22.447Z,81.77
2017-11-09T03:08:50.759Z,77.70
2017-11-09T03:11:19.026Z,78.07
2017-11-09T03:13:47.276Z,76.27
2017-11-09T03:16:15.509Z,77.30
2017-11-09T03:18:43.762Z,74.03
2017-11-09T03:21:11.999Z,77.47
2017-11-09T03:23:40.260Z,81.23
2017-11-09T03:26:08.502Z,74.47
2017-11-09T03:28:36.753Z,78.70
2017-11-09T03:31:04.992Z,76.37
2017-11-09T03:33:33.242Z,78.63
2017-11-09T03:36:02.252Z,76.00
2017-11-09T03:38:30.507Z,77.50
2017-11-09T03:40:59.522Z,77.50
2017-11-09T03:43:27.791Z,77.63
2017-11-09T03:45:56.812Z,80.40
2017-11-09T03:48:25.055Z,80.07
2017-11-09T03:50:54.075Z,81.60
2017-11-09T03:53:22.317Z,83.40
2017-11-09T03:55:50.579Z,74.37
2017-11-09T03:58:18.822Z,79.00
2017-11-09T04:00:47.073Z,78.70
2017-11-09T04:03:15.314Z,76.97
2017-11-09T04:05:44.333Z,76.20
2017-11-09T04:08:12.573Z,73.53
2017-11-09T04:10:40.831Z,71.83
2017-11-09T04:13:09.080Z,73.33
2017-11-09T04:15:37.353Z,73.70
2017-11-09T04:18:05.595Z,66.40
2017-11-09T04:20:34.603Z,71.10
2017-11-09T04:23:02.861Z,74.70
2017-11-09T04:25:31.104Z,68.70
2017-11-09T04:27:59.359Z,72.53
2017-11-09T04:30:27.606Z,68.97
2017-11-09T04:32:55.855Z,65.13
2017-11-09T04:35:24.870Z,72.57
2017-11-09T04:37:53.123Z,63.97
2017-11-09T04:40:21.371Z,63.60
2017-11-09T04:42:49.627Z,64.00
2017-11-09T04:45:17.871Z,64.37
2017-11-09T04:47:46.126Z,70.10
2017-11-09T04:50:15.135Z,70.17
2017-11-09T04:52:43.401Z,67.43
2017-11-09T04:55:12.430Z,69.40
2017-11-09T04:57:40.668Z,64.17
2017-11-09T05:00:09.693Z,68.17
2017-11-09T05:02:37.935Z,64.30
2017-11-09T05:05:06.959Z,67.67
2017-11-09T05:07:35.208Z,61.57
2017-11-09T05:10:03.466Z,68.07
2017-11-09T05:12:31.706Z,61.37
2017-11-09T05:14:59.958Z,57.13
2017-11-09T05:17:28.207Z,56.27
2017-11-09T05:19:56.454Z,63.07
2017-11-09T05:22:24.703Z,62.00
2017-11-09T05:24:52.974Z,60.30
2017-11-09T05:27:21.221Z,64.73
2017-11-09T05:29:49.675Z,63.20
2017-11-09T05:32:18.689Z,61.70
2017-11-09T05:34:47.707Z,66.50
2017-11-09T05:37:15.966Z,59.87
2017-11-09T05:39:44.218Z,59.57
2017-11-09T05:42:12.479Z,58.87
2017-11-09T05:44:40.731Z,56.60
2017-11-09T05:47:08.987Z,59.93
2017-11-09T05:49:37.225Z,59.53
2017-11-09T05:52:06.247Z,58.40
2017-11-09T05:54:34.492Z,57.90
2017-11-09T05:57:03.531Z,60.70
2017-11-09T05:59:31.779Z,60.47
2017-11-09T06:02:00.031Z,59.00
2017-11-09T06:04:28.282Z,60.20
2017-11-09T06:06:56.531Z,61.40
2017-11-09T06:09:24.784Z,64.83
2017-11-09T06:11:53.041Z,68.00
2017-11-09T06:14:21.270Z,64.37
2017-11-09T06:16:49.513Z,62.07
2017-11-09T06:19:17.770Z,62.00
2017-11-09T06:21:46.778Z,65.10
2017-11-09T06:24:15.047Z,63.37
2017-11-09T06:26:44.069Z,63.57
2017-11-09T06:29:12.315Z,68.93
2017-11-09T06:31:40.562Z,62.60
2017-11-09T06:34:08.810Z,64.57
2017-11-09T06:36:37.070Z,63.03
2017-11-09T06:39:05.317Z,63.73
2017-11-09T06:41:34.325Z,63.07
2017-11-09T06:44:02.599Z,62.40
2017-11-09T06:46:30.835Z,66.50
2017-11-09T06:48:59.086Z,62.60
2017-11-09T06:51:27.350Z,61.23
2017-11-09T06:53:55.586Z,60.60
2017-11-09T06:56:23.847Z,63.40
2017-11-09T06:58:52.090Z,58.73
2017-11-09T07:01:20.372Z,57.67
2017-11-09T07:03:48.595Z,54.27
2017-11-09T07:06:16.846Z,56.07
2017-11-09T07:08:45.864Z,59.33
2017-11-09T07:11:14.111Z,59.47
2017-11-09T07:13:43.130Z,57.33
2017-11-09T07:16:11.575Z,59.13
2017-11-09T07:18:41.264Z,61.33
2017-11-09T07:21:10.181Z,59.53
2017-11-09T07:23:38.625Z,60.23
2017-11-09T07:26:06.880Z,60.33
2017-11-09T07:28:35.130Z,55.30
2017-11-09T07:31:03.383Z,60.07
2017-11-09T07:33:31.629Z,57.27
2017-11-09T07:35:59.882Z,54.27
2017-11-09T07:38:28.140Z,54.60
2017-11-09T07:40:56.389Z,53.17
2017-11-09T07:43:24.630Z,51.30
2017-11-09T07:45:52.886Z,50.33
2017-11-09T07:48:21.140Z,49.80
2017-11-09T07:50:50.155Z,49.33
2017-11-09T07:53:18.406Z,49.17
2017-11-09T07:55:46.656Z,47.93
2017-11-09T07:58:14.926Z,47.63
2017-11-09T08:00:43.173Z,51.97
2017-11-09T08:03:11.425Z,48.23
2017-11-09T08:05:39.673Z,45.43
2017-11-09T08:08:08.683Z,44.57
2017-11-09T08:10:36.939Z,44.70
2017-11-09T08:13:05.952Z,45.10
2017-11-09T08:15:34.202Z,43.83
2017-11-09T08:18:03.212Z,42.00
2017-11-09T08:20:31.486Z,42.03
2017-11-09T08:22:59.705Z,44.50
2017-11-09T08:25:30.912Z,39.90
2017-11-09T08:28:00.788Z,39.27
2017-11-09T08:30:32.476Z,38.43
2017-11-09T08:33:03.719Z,37.40
2017-11-09T08:35:32.752Z,36.30
2017-11-09T08:38:00.997Z,39.93
2017-11-09T08:40:29.241Z,41.37
2017-11-09T08:42:58.262Z,33.87
2017-11-09T08:45:26.514Z,37.27
2017-11-09T08:47:54.762Z,36.83
2017-11-09T08:50:23.008Z,36.00
2017-11-09T08:52:51.259Z,37.80
2017-11-09T08:55:19.510Z,33.77
2017-11-09T08:57:48.527Z,38.20
2017-11-09T09:00:16.778Z,38.00
2017-11-09T09:02:45.048Z,39.80
2017-11-09T09:05:13.284Z,39.00
2017-11-09T09:07:41.531Z,36.60
2017-11-09T09:10:09.782Z,37.03
2017-11-09T09:12:38.795Z,36.57
2017-11-09T09:15:07.051Z,33.00
2017-11-09T09:17:35.290Z,34.30
2017-11-09T09:20:03.544Z,32.40
2017-11-09T09:22:36.610Z,34.30
2017-11-09T09:25:07.263Z,33.93
2017-11-09T09:27:35.494Z,34.60
2017-11-09T09:30:12.021Z,35.60
2017-11-09T09:32:43.291Z,34.93
2017-11-09T09:38:22.927Z,33.90
2017-11-09T09:40:51.174Z,33.00
2017-11-09T09:43:19.419Z,34.03
2017-11-09T09:45:47.663Z,35.10
2017-11-09T09:48:15.922Z,28.40
2017-11-09T09:50:44.183Z,31.27
2017-11-09T09:53:12.427Z,34.60
2017-11-09T09:55:40.667Z,28.50
2017-11-09T09:58:08.928Z,27.73
2017-11-09T10:00:37.172Z,28.07
2017-11-09T10:03:05.416Z,27.33
2017-11-09T10:05:33.665Z,28.80
2017-11-09T10:08:01.911Z,29.70
2017-11-09T10:10:30.156Z,28.47
2017-11-09T10:12:59.172Z,25.93
2017-11-09T10:15:27.417Z,24.93
2017-11-09T10:17:55.667Z,23.40
2017-11-09T10:20:23.921Z,24.07
2017-11-09T10:22:52.169Z,25.17
2017-11-09T10:25:20.416Z,21.00
2017-11-09T10:27:48.652Z,23.30
2017-11-09T10:30:16.908Z,22.33
2017-11-09T10:32:45.183Z,22.07
2017-11-09T10:35:13.435Z,20.77
2017-11-09T10:37:42.444Z,20.63
2017-11-09T10:40:10.696Z,21.10
2017-11-09T10:42:39.712Z,19.70
2017-11-09T10:45:07.956Z,17.87
2017-11-09T10:47:36.211Z,19.77
2017-11-09T10:50:04.440Z,20.33
2017-11-09T10:52:32.683Z,19.20
2017-11-09T10:55:00.925Z,18.10
2017-11-09T10:57:29.182Z,19.27
2017-11-09T10:59:57.446Z,17.13
2017-11-09T11:02:25.695Z,17.70
2017-11-09T11:04:54.711Z,15.13
2017-11-09T11:07:22.956Z,16.77
2017-11-09T11:09:51.969Z,17.07
2017-11-09T11:12:20.975Z,16.27
2017-11-09T11:14:49.218Z,15.27
2017-11-09T11:17:18.242Z,16.93
2017-11-09T11:19:46.494Z,15.80
2017-11-09T11:22:15.507Z,15.80
2017-11-09T11:24:43.747Z,15.47
2017-11-09T11:27:12.766Z,14.87
2017-11-09T11:29:41.011Z,14.17
2017-11-09T11:32:09.274Z,14.83
2017-11-09T11:34:37.520Z,13.67
2017-11-09T11:37:05.769Z,15.80
2017-11-09T11:39:34.023Z,15.07
2017-11-09T11:42:03.031Z,14.87
2017-11-09T11:44:32.049Z,13.60
2017-11-09T11:47:00.302Z,16.77
2017-11-09T11:49:29.316Z,15.10
2017-11-09T11:51:57.564Z,14.50
2017-11-09T11:54:26.586Z,15.27
2017-11-09T11:56:54.835Z,13.87
2017-11-09T11:59:23.852Z,15.90
2017-11-09T12:01:52.099Z,15.07
2017-11-09T12:04:24.054Z,14.70
2017-11-09T12:06:53.066Z,15.97
2017-11-09T12:09:20.606Z,16.90
2017-11-09T12:11:53.460Z,18.20
2017-11-09T12:14:21.702Z,19.27
2017-11-09T12:16:49.951Z,18.47
2017-11-09T12:19:18.963Z,17.00
2017-11-09T12:21:47.215Z,17.83
2017-11-09T12:24:16.219Z,18.47
2017-11-09T12:26:44.470Z,17.53
2017-11-09T12:29:14.590Z,17.57
2017-11-09T12:31:42.839Z,18.33
2017-11-09T12:34:11.080Z,16.67
2017-11-09T12:36:39.348Z,17.07
2017-11-09T12:39:07.596Z,16.70
2017-11-09T12:41:35.834Z,18.13
2017-11-09T12:44:04.087Z,17.80
2017-11-09T12:46:32.334Z,16.63
2017-11-09T12:49:01.353Z,17.70
2017-11-09T12:51:29.596Z,17.47
2017-11-09T12:53:58.612Z,18.33
2017-11-09T12:56:26.855Z,18.90
2017-11-09T12:58:55.109Z,17.83
2017-11-09T13:01:23.351Z,16.23
2017-11-09T13:03:51.599Z,17.43
2017-11-09T13:06:19.847Z,19.20
2017-11-09T13:08:48.099Z,17.90
2017-11-09T13:11:16.343Z,19.80
2017-11-09T13:13:44.607Z,22.10
2017-11-09T13:16:12.851Z,23.80
2017-11-09T13:18:41.090Z,24.57
2017-11-09T13:21:09.351Z,26.27
2017-11-09T13:23:37.585Z,25.17
2017-11-09T13:26:06.607Z,25.53
2017-11-09T13:28:34.851Z,26.47
2017-11-09T13:31:03.874Z,27.13
2017-11-09T13:33:32.119Z,28.50
2017-11-09T13:36:01.136Z,28.27
2017-11-09T13:38:29.380Z,31.30
2017-11-09T13:40:57.631Z,32.83
2017-11-09T13:43:25.875Z,32.57
2017-11-09T13:45:54.127Z,32.37
2017-11-09T13:48:23.136Z,31.63
2017-11-09T13:50:51.408Z,31.00
2017-11-09T13:53:19.660Z,31.20
2017-11-09T13:55:48.675Z,32.53
2017-11-09T13:58:16.930Z,30.17
2017-11-09T14:00:45.939Z,30.40
2017-11-09T14:03:14.955Z,33.80
2017-11-09T14:05:43.196Z,31.70
2017-11-09T14:08:12.215Z,32.80
2017-11-09T14:10:40.460Z,31.93
2017-11-09T14:13:09.482Z,29.83
2017-11-09T14:15:37.733Z,31.50
2017-11-09T14:18:06.746Z,30.40
2017-11-09T14:20:34.986Z,30.00
2017-11-09T14:23:03.231Z,32.40
2017-11-09T14:25:31.476Z,30.60
2017-11-09T14:27:59.730Z,27.93
2017-11-09T14:30:28.744Z,29.30
2017-11-09T14:32:56.995Z,28.43
2017-11-09T14:35:26.004Z,33.27
2017-11-09T14:37:54.258Z,28.77
2017-11-09T14:40:23.271Z,28.83
2017-11-09T14:42:51.519Z,29.80
2017-11-09T14:45:19.755Z,29.10
2017-11-09T14:47:48.002Z,31.60
2017-11-09T14:50:16.238Z,28.07
2017-11-09T14:52:44.486Z,26.97
2017-11-09T14:55:12.730Z,29.50
2017-11-09T14:57:40.974Z,29.20
2017-11-09T15:00:09.987Z,29.20
2017-11-09T15:02:39.006Z,28.30
2017-11-09T15:05:07.246Z,28.90
2017-11-09T15:07:36.254Z,31.30
2017-11-09T15:10:04.501Z,29.40
2017-11-09T15:12:32.747Z,28.43
2017-11-09T15:15:00.994Z,30.00
2017-11-09T15:17:29.242Z,30.60
2017-11-09T15:19:58.255Z,30.83
2017-11-09T15:22:26.510Z,30.93
2017-11-09T15:24:55.518Z,30.33
2017-11-09T15:27:23.769Z,30.73
2017-11-09T15:29:52.782Z,31.40
2017-11-09T15:32:21.033Z,26.47
2017-11-09T15:34:50.079Z,32.90
2017-11-09T15:37:18.335Z,31.23
2017-11-09T15:39:46.589Z,35.17
2017-11-09T15:42:15.597Z,36.27
2017-11-09T15:44:43.849Z,34.33
2017-11-09T15:47:12.088Z,38.43
2017-11-09T15:49:40.336Z,33.70
2017-11-09T15:52:08.580Z,36.20
2017-11-09T15:54:37.600Z,34.47
2017-11-09T15:57:05.845Z,34.07
2017-11-09T15:59:34.097Z,35.20
2017-11-09T16:02:02.335Z,36.10
2017-11-09T16:04:30.578Z,33.63
2017-11-09T16:07:01.522Z,34.00
2017-11-09T16:09:30.540Z,33.63
2017-11-09T16:11:58.776Z,35.30
2017-11-09T16:14:27.791Z,35.73
2017-11-09T16:16:56.032Z,34.50
2017-11-09T16:19:24.279Z,34.40
2017-11-09T16:21:52.523Z,37.20
2017-11-09T16:24:20.768Z,32.00
2017-11-09T16:26:49.771Z,35.77
2017-11-09T16:29:18.786Z,37.10
2017-11-09T16:31:47.035Z,33.73
2017-11-09T16:34:16.046Z,34.70
2017-11-09T16:36:44.300Z,33.37
2017-11-09T16:39:13.339Z,35.87
2017-11-09T16:41:41.594Z,34.13
2017-11-09T16:44:09.844Z,35.03
2017-11-09T16:46:38.862Z,35.23
2017-11-09T16:49:07.119Z,37.80
2017-11-09T16:51:36.134Z,39.07
2017-11-09T16:54:04.386Z,35.13
2017-11-09T16:56:33.400Z,35.13
2017-11-09T16:59:01.648Z,36.83
2017-11-09T17:01:29.892Z,34.80
2017-11-09T17:03:58.135Z,31.67
2017-11-09T17:06:26.379Z,35.00
2017-11-09T17:08:55.391Z,35.93
2017-11-09T17:11:24.555Z,37.77
2017-11-09T17:13:52.807Z,35.67
2017-11-09T17:16:21.051Z,33.03
2017-11-09T17:18:49.294Z,34.80
2017-11-09T17:21:18.334Z,36.77
2017-11-09T17:23:46.579Z,33.73
2017-11-09T17:26:14.833Z,34.80
2017-11-09T17:28:43.082Z,36.30
2017-11-09T17:31:11.318Z,35.63
2017-11-09T17:33:39.573Z,35.27
2017-11-09T17:36:08.580Z,31.93
2017-11-09T17:38:36.827Z,32.43
2017-11-09T17:41:05.844Z,34.90
2017-11-09T17:43:34.094Z,37.63
2017-11-09T17:46:02.334Z,36.30
2017-11-09T17:48:30.594Z,32.70
2017-11-09T17:50:58.844Z,37.30
2017-11-09T17:53:27.860Z,34.57
2017-11-09T17:55:56.103Z,33.03
2017-11-09T17:58:25.118Z,34.10
2017-11-09T18:00:53.358Z,35.50
2017-11-09T18:03:22.398Z,34.87
2017-11-09T18:05:50.643Z,34.60
2017-11-09T18:08:19.658Z,33.47
2017-11-09T18:10:47.905Z,34.30
2017-11-09T18:13:16.907Z,35.40
2017-11-09T18:15:45.166Z,35.73
2017-11-09T18:18:14.172Z,34.70
2017-11-09T18:20:42.482Z,33.50
2017-11-09T18:23:14.542Z,30.60
2017-11-09T18:25:42.801Z,34.70
2017-11-09T18:28:11.039Z,33.00
2017-11-09T18:30:39.294Z,34.30
2017-11-09T18:33:07.535Z,34.90
2017-11-09T18:35:35.786Z,36.10
2017-11-09T18:38:04.792Z,29.60
2017-11-09T18:40:33.044Z,28.10
2017-11-09T18:43:02.051Z,29.87
2017-11-09T18:45:31.075Z,35.77
2017-11-09T18:47:59.326Z,34.30
2017-11-09T18:50:27.577Z,33.03
2017-11-09T18:52:56.589Z,34.63
2017-11-09T18:55:24.834Z,35.50
2017-11-09T18:57:53.083Z,35.70
2017-11-09T19:00:21.334Z,34.20
2017-11-09T19:02:49.587Z,34.80
2017-11-09T19:05:18.593Z,35.90
2017-11-09T19:07:46.850Z,33.60
2017-11-09T19:10:15.862Z,35.13
2017-11-09T19:12:44.113Z,34.13
2017-11-09T19:15:13.131Z,34.97
2017-11-09T19:17:41.373Z,31.77
2017-11-09T19:20:09.615Z,32.33
2017-11-09T19:22:37.862Z,34.13
2017-11-09T19:25:06.103Z,32.27
2017-11-09T19:27:35.114Z,35.93
2017-11-09T19:30:04.123Z,37.17
2017-11-09T19:32:32.363Z,37.07
2017-11-09T19:35:01.397Z,35.20
2017-11-09T19:37:29.635Z,32.17
2017-11-09T19:39:57.886Z,28.80
2017-11-09T19:42:26.131Z,26.97
2017-11-09T19:44:54.388Z,28.70
2017-11-09T19:47:23.391Z,25.93
2017-11-09T19:49:51.639Z,28.83
2017-11-09T19:52:20.644Z,27.80
2017-11-09T19:54:49.678Z,24.87
2017-11-09T19:57:17.921Z,24.00
2017-11-09T19:59:46.159Z,26.27
2017-11-09T20:02:14.414Z,23.17
2017-11-09T20:04:42.647Z,21.00
2017-11-09T20:07:10.894Z,21.10
2017-11-09T20:09:39.133Z,19.50
2017-11-09T20:12:07.387Z,19.40
2017-11-09T20:14:35.627Z,19.60
2017-11-09T20:17:03.864Z,18.80
2017-11-09T20:19:32.103Z,11.97
2017-11-09T20:22:00.352Z,20.83
2017-11-09T20:24:28.599Z,20.40
2017-11-09T20:26:56.861Z,21.13
2017-11-09T20:29:25.102Z,18.20
2017-11-09T20:31:53.397Z,18.27
2017-11-09T20:34:21.643Z,18.00
2017-11-09T20:36:50.650Z,21.50
2017-11-09T20:39:19.807Z,20.00
2017-11-09T20:41:48.062Z,18.40
2017-11-09T20:44:16.306Z,20.83
2017-11-09T20:46:44.550Z,19.83
2017-11-09T20:49:13.567Z,19.43
2017-11-09T20:51:41.806Z,19.00
2017-11-09T20:54:10.056Z,20.10
2017-11-09T20:56:38.307Z,17.53
2017-11-09T20:59:06.579Z,19.23
2017-11-09T21:01:35.558Z,17.97
2017-11-09T21:04:03.807Z,14.00
2017-11-09T21:06:32.811Z,17.93
2017-11-09T21:09:01.844Z,14.50
2017-11-09T21:11:30.075Z,17.90
2017-11-09T21:13:59.087Z,14.53
2017-11-09T21:16:27.335Z,15.87
2017-11-09T21:18:56.400Z,15.57
2017-11-09T21:21:24.639Z,14.97
2017-11-09T21:23:52.896Z,15.53
2017-11-09T21:26:21.906Z,14.80
2017-11-09T21:28:50.152Z,12.93
2017-11-09T21:31:19.181Z,11.93
2017-11-09T21:33:47.415Z,12.70
2017-11-09T21:36:15.664Z,12.63
2017-11-09T21:38:43.910Z,12.13
2017-11-09T21:41:12.174Z,12.70
2017-11-09T21:43:40.411Z,11.47
2017-11-09T21:46:08.661Z,11.90
2017-11-09T21:48:36.895Z,11.40
2017-11-09T21:51:11.605Z,11.20
2017-11-09T21:53:40.607Z,11.20
2017-11-09T21:56:08.865Z,11.53
2017-11-09T21:58:38.967Z,10.97
2017-11-09T22:01:07.219Z,11.50
2017-11-09T22:03:35.465Z,10.60
2017-11-09T22:06:03.708Z,11.07
2017-11-09T22:08:32.719Z,11.20
2017-11-09T22:11:01.735Z,12.33
2017-11-09T22:13:30.002Z,12.67
2017-11-09T22:15:58.987Z,14.20
2017-11-09T22:18:27.242Z,13.87
2017-11-09T22:20:56.250Z,14.97
2017-11-09T22:23:24.495Z,16.03
2017-11-09T22:25:52.763Z,15.47
2017-11-09T22:28:21.006Z,15.50
2017-11-09T22:30:49.281Z,15.17
2017-11-09T22:33:17.546Z,12.87
2017-11-09T22:35:45.791Z,15.63
2017-11-09T22:38:14.798Z,16.17
2017-11-09T22:40:43.865Z,17.97
2017-11-09T22:43:12.105Z,17.30
2017-11-09T22:45:40.354Z,17.40
2017-11-09T22:48:08.596Z,14.20
2017-11-09T22:50:36.839Z,14.43
2017-11-09T22:53:05.075Z,16.17
2017-11-09T22:55:33.333Z,17.63
2017-11-09T22:58:02.611Z,17.10
2017-11-09T23:00:31.733Z,16.47
2017-11-09T23:03:00.828Z,16.77
2017-11-09T23:05:29.146Z,13.37
2017-11-09T23:07:57.476Z,15.83
2017-11-09T23:10:26.539Z,18.30
2017-11-09T23:12:54.843Z,16.43
2017-11-09T23:15:23.906Z,19.47
2017-11-09T23:17:52.269Z,19.13
2017-11-09T23:20:20.562Z,18.17
2017-11-09T23:22:49.620Z,19.30
2017-11-09T23:25:17.932Z,22.33
2017-11-09T23:27:46.237Z,21.97
2017-11-09T23:30:15.315Z,21.80
2017-11-09T23:32:44.439Z,20.77
2017-11-09T23:35:12.690Z,21.10
2017-11-09T23:37:40.948Z,21.00
2017-11-09T23:40:09.952Z,19.53
2017-11-09T23:42:38.190Z,21.40
2017-11-09T23:45:06.432Z,21.67
2017-11-09T23:47:35.447Z,20.50
2017-11-09T23:50:03.689Z,21.33
2017-11-09T23:52:32.703Z,21.97
2017-11-09T23:55:00.951Z,18.00
2017-11-09T23:57:29.197Z,17.00
2017-11-09T23:59:57.438Z,20.70
